Bautista Ferreyra

Recruteur en chef - Rosario Central
13 Févr 2028
Dimanche
Processus

Personnalité

Adaptabilité (8) Ambition (16) Controverse (1) Loyauté (11) Pression (9) Professionnalisme (10) Sportivité (2) Tempérament (12)

Profil

Style d'entraînement Démocratique
Diplôme Continental Pro
Détermination 7
Gestion des joueurs 14
Motivation 10
Discipline 6
Satisfaction professionnelle
100%
Fatigue
0%
Rôle Recruteur en chef
Salaire 74.4K p/s
Contrat 14.03.2028

Performance

Comportement Bon
Efficacité de l'entraînement
40%
Développement des joueurs
45%
Prévention des blessures
65%
Mise en place tactique
25%

Événements récents

A participé à une réunion de recrutement maintenant
A participé à une réunion de recrutement maintenant
A recommandé une cible de transfert maintenant
A recommandé une cible de transfert maintenant
A recommandé une cible de transfert maintenant
Négociation de contrat entamée maintenant
Négociation de contrat entamée maintenant
Négociation de contrat entamée maintenant

Suivi en cours

208
Joueur Club Statut Capacité Confiance Observé Dernière observation Dernier vote
Nicolás Montiel Ferro Carril Oeste Actif 111 / 123 86% 1 20.12.2027 Approuver
Georginio Rutter Brighton Actif 152 / 152 40% 3 07.12.2027 -
Thiago Brentford Actif 151 / 150 40% 1 07.12.2027 -
Mateusz Bogusz Houston Dynamo Actif 131 / 127 40% 1 07.12.2027 -
Marco Morigi Caracas Actif 91 / 97 40% 1 01.12.2027 -
Kenan Busuladžić Malmo FF Actif 109 / 123 40% 1 01.12.2027 -
Joel Ezra Enyimba Actif 95 / 105 40% 1 01.12.2027 -
Giacomo Raspadori Atalanta Actif 147 / 136 40% 7 05.07.2027 -
Kasper Høgh Huracán Actif 133 / 135 40% 1 05.07.2027 -
Martin Baturina Como Actif 142 / 133 40% 6 28.06.2027 -
Gustav Isaksen Lazio Actif 144 / 155 40% 1 28.06.2027 -
Hernán Perrone Almirante Brown Actif 108 / 108 42% 1 / 1m 09.06.2027 -
Celías Ingenthron Platense Actif 110 / 121 83% 1 02.06.2027 Approuver
Unai Gómez Udinese Actif 133 / 139 40% 2 31.05.2027 -
Savinho Tottenham Actif 153 / 157 40% 6 30.05.2027 -
Pontus Almqvist Parma Actif 131 / 135 40% 5 30.05.2027 -
Manu Koné AS Roma Actif 166 / 176 40% 6 29.05.2027 -
Raoul Bellanova Atalanta Actif 155 / 146 40% 4 28.05.2027 -
Assane Diao Como Actif 149 / 142 40% 10 28.05.2027 -
Lewis Ferguson Bologna Actif 141 / 133 40% 1 27.05.2027 -
Matías Soulé AS Roma Actif 161 / 153 40% 3 25.05.2027 -
Bernat Guiu Virtus Entella Actif 123 / 125 40% 1 24.05.2027 -
Bongani Zungu Ajax Cape Town Actif 122 / 115 40% 15 23.05.2027 -
Hannibal Burnley Actif 128 / 118 40% 1 23.05.2027 -
Bradley Zwane SuperSport United Actif 119 / 123 40% 8 21.05.2027 -
Nicolò Zaniolo Udinese Actif 146 / 148 40% 4 20.05.2027 -
Temirlan Anarbekov Kairat Actif 119 / 120 40% 1 18.05.2027 -
Zakaria Aboukhlal Torino Actif 140 / 124 40% 1 16.05.2027 -
Oswin Appollis Orlando Pirates Actif 126 / 111 40% 5 13.05.2027 -
Santiago Pierotti Lecce Actif 133 / 139 40% 2 13.05.2027 -
Eliás Montiel Borussia Dortmund Actif 135 / 132 40% 2 11.05.2027 -
Ezra Mayers West Ham United Actif 120 / 117 40% 1 11.05.2027 -
Martim Cunha Porto Actif 105 / 103 40% 1 11.05.2027 -
Jesús Rodríguez Como Actif 141 / 158 40% 1 06.05.2027 -
Lucas Da Cunha Como Actif 141 / 141 40% 1 05.05.2027 -
Leandro Brey Boca Juniors Actif 130 / 125 40% 3 04.05.2027 -
Nicolás Bolcato Independiente Rivadavia Actif 117 / 122 40% 1 04.05.2027 -
Gor Matinyan Urartu Actif 100 / 107 40% 1 03.05.2027 -
Matvey Kislyak CSKA Moscow Actif 138 / 152 40% 1 30.04.2027 -
Pietro Reggiori Pro Patria Actif 90 / 102 40% 1 30.04.2027 -
Nuno Tavares Lazio Actif 146 / 143 40% 2 29.04.2027 -
Nadir Zortea Bologna Actif 140 / 129 40% 1 26.04.2027 -
Andrea Colpani Monza Actif 133 / 139 40% 2 25.04.2027 -
Frankarlos Benítez Caracas Actif 102 / 109 40% 2 24.04.2027 -
Nikita Kokarev Spartak Moscow Actif 120 / 124 40% 1 23.04.2027 -
Mathys Tel Tottenham Actif 140 / 156 40% 1 19.04.2027 -
Giorgi Kvernadze Frosinone Actif 131 / 111 40% 2 18.04.2027 -
Themba Williams Ajax Cape Town Actif 112 / 108 40% 1 18.04.2027 -
Ludovico Del Sorbo Sorrento Actif 108 / 107 40% 1 17.04.2027 -
Nicolò Cambiaghi Bologna Actif 146 / 139 40% 1 16.04.2027 -
Matteo Rizzo Cosenza Actif 103 / 118 40% 1 15.04.2027 -
Ilyas Ansah Hull City Actif 138 / 128 40% 3 14.04.2027 -
Francesco D'Alterio Ternana Actif 114 / 112 40% 2 03.04.2027 -
Halldór Snær Georgsson KR Actif 102 / 101 40% 1 03.04.2027 -
Sergey Pinyaev Lokomotiv Moscow Actif 134 / 117 40% 1 29.03.2027 -
Gonzalo Fulham Actif 139 / 155 40% 3 27.03.2027 -
Louie Barry Sheffield Wednesday Actif 128 / 120 40% 1 27.03.2027 -
Nicolas Jackson Aston Villa Actif 156 / 137 40% 2 26.03.2027 -
Boubacar Kamara Aston Villa Actif 163 / 161 40% 2 25.03.2027 -
Jack Rudoni Coventry City Actif 139 / 140 40% 2 23.03.2027 -
Carlos Vicente Birmingham Actif 147 / 143 40% 3 23.03.2027 -
Mikkel Damsgaard Brentford Actif 150 / 148 40% 4 22.03.2027 -
Andre Brooks Sheffield United Actif 129 / 139 40% 3 22.03.2027 -
Marcelo Allende Mamelodi Sundowns Actif 136 / 127 40% 6 21.03.2027 -
Radek Vítek Middlesbrough Actif 144 / 142 40% 2 21.03.2027 -
Wilson Isidor Sunderland Actif 141 / 147 40% 4 21.03.2027 -
Robin Roefs Sunderland Actif 152 / 150 40% 2 20.03.2027 -
Oliver Dovin Coventry City Actif 124 / 135 40% 1 20.03.2027 -
Amadou Onana Aston Villa Actif 156 / 146 40% 2 19.03.2027 -
James Dornelly Peterborough United Actif 98 / 109 40% 1 19.03.2027 -
David Ozoh Derby County Actif 124 / 127 40% 1 19.03.2027 -
Leandro Martins Benfica Actif 93 / 86 40% 1 19.03.2027 -
Kevin Fulham Actif 155 / 139 40% 3 15.03.2027 -
Malick Fofana Sunderland Actif 151 / 151 40% 1 15.03.2027 -
Finn Azaz Southampton Actif 130 / 134 40% 2 14.03.2027 -
Yeremy Pino Crystal Palace Actif 148 / 161 40% 4 14.03.2027 -
Joe Gelhardt Hull City Actif 138 / 128 40% 1 13.03.2027 -
Rodrigo Gomes Wolverhampton Actif 142 / 147 40% 1 12.03.2027 -
Manor Solomon West Ham United Actif 137 / 127 40% 1 11.03.2027 -
Morgan Gibbs-White Nottingham Forest Actif 152 / 152 40% 3 09.03.2027 -
Adrien Truffert Bournemouth Actif 144 / 139 40% 1 02.03.2027 -
Chemsdine Talbi Sunderland Actif 140 / 138 40% 1 01.03.2027 -
Marcel Ruiz Crystal Palace Actif 135 / 152 40% 4 27.02.2027 -
Amine Adli Bournemouth Actif 146 / 142 40% 1 27.02.2027 -
Isaiah Jones Luton Town Actif 124 / 110 40% 1 26.02.2027 -
Sascha Britschgi AC Milan Actif 111 / 122 40% 1 25.02.2027 -
Nico O'Reilly Manchester City Actif 155 / 153 40% 1 25.02.2027 -
Kamaldeen Atiemo Wa All Stars Actif 103 / 101 40% 1 25.02.2027 -
Oston O'runov Persepolis Actif 128 / 111 40% 8 21.02.2027 -
Jacob Ramsey Newcastle United Actif 151 / 157 40% 1 20.02.2027 -
Shahriar Rezaeian Siah Jamegan Actif 104 / 118 40% 2 17.02.2027 -
Marquinhos Spartak Moscow Actif 132 / 136 40% 2 17.02.2027 -
Levan Tandilashvili Egnatia Rrogozhinë Actif 111 / 113 40% 1 17.02.2027 -
Alexandr Koryakin Krasnodar Actif 119 / 103 40% 1 17.02.2027 -
Tino Livramento Newcastle United Actif 162 / 162 40% 1 10.02.2027 -
Melker Ellborg Sunderland Actif 124 / 127 40% 1 07.02.2027 -
Tyler Adams Bournemouth Actif 152 / 164 40% 1 01.02.2027 -
Jack McGlynn Stoke City Actif 134 / 129 40% 3 31.01.2027 -
Serginho Al Wasl Actif 123 / 138 40% 1 27.01.2027 -
Max Johnston Derby County Actif 129 / 135 40% 1 25.01.2027 -
Scott Twine Bristol City Actif 126 / 116 40% 3 23.01.2027 -
Petar Stanić Ludogorets Actif 134 / 139 40% 1 21.01.2027 -
Juan Bezerra Zamalek Actif 116 / 113 40% 3 15.01.2027 -
Mohammad Mehdi Mohebi Persepolis Actif 120 / 118 40% 1 14.01.2027 -
John Mercado Sparta Prague Actif 123 / 121 40% 1 13.01.2027 -
Oliver Skipp Leicester City Actif 133 / 126 40% 1 12.01.2027 -
Peter Federico Gornik Zabrze Actif 125 / 124 40% 1 12.01.2027 -
Jason Knight Bristol City Actif 130 / 116 40% 1 02.01.2027 -
Lucas Cepeda Elche Actif 120 / 128 40% 3 30.12.2026 -
Sorba Thomas Stoke City Actif 126 / 116 40% 2 30.12.2026 -
Manu Morlanes Mallorca Actif 137 / 137 40% 4 28.12.2026 -
Reda Khadra Qarabag Actif 138 / 142 40% 3 28.12.2026 -
Florentino Luís Ipswich Town Actif 143 / 126 40% 2 27.12.2026 -
Bobby Clark Derby County Actif 123 / 114 40% 1 26.12.2026 -
Brooke Norton-Cuffy Hull City Actif 129 / 129 40% 1 22.12.2026 -
Milan van Ewijk Coventry City Actif 128 / 122 40% 1 22.12.2026 -
Ezequiel Burdin Defensa y Justicia Actif 107 / 119 79% 1 21.12.2026 Approuver
Alireza Yazdani Padideh Actif 117 / 130 40% 1 14.12.2026 -
Rhian Brewster Oleksandriya Actif 124 / 132 40% 1 14.12.2026 -
Youssoufa Moukoko FC Copenhagen Actif 123 / 132 40% 2 09.12.2026 -
Ola Brynhildsen Rapid Wien Actif 125 / 131 40% 1 02.12.2026 -
Sam Greenwood Bristol City Actif 114 / 125 40% 1 02.12.2026 -
Hidemasa Morita Hull City Actif 142 / 136 40% 1 30.11.2026 -
Ferland Mendy Real Madrid Actif 146 / 152 40% 7 28.11.2026 -
Edu Expósito Espanyol Actif 145 / 144 40% 4 28.11.2026 -
André-Franck Zambo Anguissa Napoli Actif 154 / 159 40% 1 27.11.2026 -
Juan Bisanz Huracán Actif 129 / 129 40% 2 26.11.2026 -
Murphy Cooper Plymouth Argyle Actif 109 / 125 40% 2 26.11.2026 -
Lucas Bergström Union Berlin Actif 129 / 114 40% 1 26.11.2026 -
Tatsuhiro Sakamoto Coventry City Actif 122 / 137 40% 1 23.11.2026 -
Teboho Mokoena Mamelodi Sundowns Actif 136 / 136 40% 2 18.11.2026 -
Majid Jahanbakhsh Rah Ahan Actif 122 / 115 40% 2 17.11.2026 -
Sławomir Abramowicz Jagiellonia Actif 116 / 132 40% 2 15.11.2026 -
Santiago Montiel Independiente Actif 121 / 123 40% 1 13.11.2026 -
Tyrese Campbell Sheffield United Actif 136 / 125 40% 1 12.11.2026 -
Matías Vargas Gimnasia y Esgrima Actif 134 / 135 40% 3 11.11.2026 -
Szymon Weirauch Lechia Actif 105 / 101 40% 1 11.11.2026 -
Egoitz Arana Real Sociedad Actif 108 / 96 40% 1 11.11.2026 -
James Trafford Leeds United Actif 147 / 138 40% 1 09.11.2026 -
Rico Henry River Plate Actif 136 / 131 40% 2 06.11.2026 -
Tyrhys Dolan Espanyol Actif 144 / 133 40% 6 05.11.2026 -
Matías Zaracho Racing Club Actif 127 / 126 40% 1 04.11.2026 -
Bruno Antúnez Boston River Actif 109 / 119 40% 1 01.11.2026 -
Jens Petter Hauge Bodo/Glimt Actif 136 / 136 40% 1 30.10.2026 -
Jáder Valencia Deportes Tolima Actif 110 / 116 40% 1 30.10.2026 -
Álex Berenguer Lokomotiv Moscow Actif 158 / 144 40% 5 28.10.2026 -
Leon Goretzka Aston Villa Actif 162 / 146 40% 2 27.10.2026 -
Pedrinho Shakhtar Actif 136 / 132 40% 1 27.10.2026 -
Leonardo Godoy Independiente Actif 130 / 124 40% 1 26.10.2026 -
Morgan Guilavogui Real Salt Lake Actif 119 / 124 40% 1 25.10.2026 -
Mohamed-Ali Cho Hull City Actif 139 / 135 40% 1 24.10.2026 -
Marcelino Moreno Lanús Actif 128 / 132 40% 1 23.10.2026 -
Franco Cristaldo Talleres Actif 122 / 125 40% 1 17.10.2026 -
Talles Magno New York City Actif 131 / 127 40% 2 16.10.2026 -
Sergi Cardona KAA Gent Actif 141 / 153 40% 3 15.10.2026 -
Ander Guevara Racing Genk Actif 134 / 131 40% 3 15.10.2026 -
Alan Lescano Argentinos Juniors Actif 135 / 123 40% 1 14.10.2026 -
Alex Luna Instituto Actif 133 / 130 40% 1 14.10.2026 Plus d'infos
Alejo Cruz Juventud Actif 121 / 111 40% 1 12.10.2026 -
Mateus Mané Burnley Actif 127 / 134 40% 1 10.10.2026 -
Rodrigo Echeverría Leon Actif 125 / 133 40% 2 08.10.2026 -
Alan Cervantes Club America Actif 127 / 118 40% 1 08.10.2026 -
Pascal Loretz Luzern Actif 128 / 115 40% 3 07.10.2026 -
Jordi Cortizo Leon Actif 127 / 132 40% 1 05.10.2026 -
Juninho Pumas UNAM Actif 134 / 134 40% 3 04.10.2026 -
Ismael Díaz Leon Actif 131 / 127 40% 1 04.10.2026 -
Alexey Miranchuk Atlanta United FC Actif 138 / 143 40% 1 02.10.2026 -
Carlos Rodríguez Cruz Azul Actif 131 / 125 40% 4 01.10.2026 -
Brian Rodríguez Club America Actif 129 / 115 40% 2 01.10.2026 -
Allan Saint-Maximin Charlotte Football Club Actif 142 / 128 40% 1 30.09.2026 -
Richard Ledezma Guadalajara Actif 127 / 124 40% 4 29.09.2026 -
Gerardo Arteaga Monterrey Actif 122 / 134 40% 3 29.09.2026 -
Carlos Gruezo Santos Laguna Actif 131 / 126 40% 1 27.09.2026 -
Diego Lainez Tigres Actif 135 / 130 40% 3 26.09.2026 -
Carlos Álvarez Club America Actif 129 / 152 40% 2 26.09.2026 -
Sebastián Córdova Pumas UNAM Actif 129 / 145 40% 5 24.09.2026 -
Luís Esteves Atlas Actif 128 / 125 40% 2 24.09.2026 -
Rubén Duarte Pumas UNAM Actif 130 / 138 40% 4 23.09.2026 -
Nacho Vidal Santos Laguna Actif 127 / 143 40% 3 22.09.2026 -
Andreas Jungdal Westerlo Actif 113 / 131 40% 2 21.09.2026 -
Nicolás Castro Toluca Actif 127 / 138 40% 1 19.09.2026 -
Brian Gutiérrez Guadalajara Actif 125 / 117 40% 3 17.09.2026 -
Árni Marinó Einarsson IA Actif 97 / 91 40% 1 17.09.2026 -
Vladimir Nazarov Pakhtakor Actif 113 / 104 40% 1 17.09.2026 -
Fidel Ambríz Monterrey Actif 123 / 142 40% 3 16.09.2026 -
Luciano Inverso Betis Actif 109 / 105 40% 1 15.09.2026 -
Carlos Rotondi Cruz Azul Actif 133 / 132 40% 1 14.09.2026 -
Jorge Jimenez Veracruz Actif 84 / 105 40% 1 13.09.2026 -
Fernando Gorriarán Tigres Actif 131 / 139 40% 3 11.09.2026 -
Joel Orlando Almagro Actif 107 / 124 40% 1 11.09.2026 -
Alfredo Martínez Nacional Actif 90 / 86 40% 1 11.09.2026 -
Agustín Palavecino Cruz Azul Actif 142 / 134 40% 2 09.09.2026 -
Juan Sierra La Equidad Actif 122 / 139 40% 1 08.09.2026 -
Alejandro Zendejas Club America Actif 144 / 151 40% 2 06.09.2026 -
Luis Romo Guadalajara Actif 146 / 132 40% 2 04.09.2026 -
Efrain Dos Santos Veracruz Actif 131 / 124 40% 4 30.08.2026 -
Kevin Zenón Boca Juniors Actif 122 / 134 40% 1 29.08.2026 -
Víctor Guzmán Toluca Actif 121 / 134 40% 1 27.08.2026 -
Mauro Smarra Deportivo Riestra Actif 106 / 106 30% 1 / 1m 26.08.2026 -
Jesús Angulo Tigres Actif 135 / 129 40% 2 23.08.2026 -
Agustín Ruberto River Plate Actif 111 / 135 40% 1 20.08.2026 -
Filip Marschall Stevenage Actif 111 / 109 40% 1 18.08.2026 -
Ángel Correa River Plate Actif 146 / 153 40% 1 16.08.2026 -
Jorge Sánchez Atlas Actif 121 / 126 40% 1 15.08.2026 -
Xavier Biscayzacú Defensor Sporting Actif 118 / 116 40% 1 13.08.2026 -
Diego Rossi Monterrey Actif 130 / 148 40% 1 05.08.2026 -
Chidera Ejuke Sevilla Actif 131 / 135 40% 1 01.08.2026 -
Jesús Gallardo Toluca Actif 134 / 132 40% 1 01.08.2026 -